CDT,Max TemperatureF,Mean TemperatureF,Min TemperatureF,Max Dew PointF,MeanDew PointF,Min DewpointF,Max Humidity, Mean Humidity, Min Humidity, Max Sea Level PressureIn, Mean Sea Level PressureIn, Min Sea Level PressureIn, Max VisibilityMiles, Mean VisibilityMiles, Min VisibilityMiles, Max Wind SpeedMPH, Mean Wind SpeedMPH, Max Gust SpeedMPH,PrecipitationIn, CloudCover, Events, WindDirDegrees
2012-9-1,95,78,60,65,57,49,72,53,33,30.02,29.94,29.83,10,10,10,18,10,28,0.00,0,,143
2012-9-2,98,80,61,66,61,55,87,56,25,29.89,29.80,29.74,10,10,10,24,11,30,0.00,0,,175
2012-9-3,93,73,53,61,56,48,100,61,22,29.97,29.85,29.76,10,10,8,22,8,25,T,1,,164
2012-9-4,95,73,50,63,53,37,100,64,7,29.90,29.80,29.64,10,8,0,45,5,53,0.30,2,Fog-Rain,121
2012-9-5,79,67,54,56,47,41,93,55,18,29.99,29.92,29.78,10,10,0,20,7,24,0.00,0,,336
2012-9-6,87,69,51,52,47,44,86,50,16,29.95,29.88,29.78,10,10,10,17,9,25,0.00,1,,134
2012-9-7,73,59,44,51,47,41,96,66,36,30.16,30.09,29.96,10,10,9,22,10,33,0.00,1,,336
2012-9-8,85,64,43,48,39,29,89,55,20,30.17,30.08,29.99,10,10,10,28,12,36,0.00,0,,310
2012-9-9,76,56,36,45,38,34,92,59,25,30.27,30.15,29.97,10,10,10,15,6,22,0.00,0,,175
2012-9-10,98,77,56,45,43,40,61,39,16,29.95,29.74,29.60,10,10,10,29,15,40,0.00,0,,173
2012-9-11,89,73,57,50,44,35,75,33,16,30.00,29.70,29.57,10,10,9,24,10,30,0.06,1,Rain,168
2012-9-12,73,61,49,52,48,34,93,59,25,30.27,30.17,30.03,10,10,9,12,4,15,0.06,3,Rain,225
2012-9-13,82,59,36,49,42,31,100,79,9,30.36,30.31,30.22,10,5,0,18,4,26,0.00,1,Fog,249
2012-9-14,80,60,40,45,38,31,93,48,9,30.30,30.23,30.16,10,10,10,10,3,13,0.00,0,,316
2012-9-15,89,67,45,46,41,38,82,43,10,30.14,30.01,29.88,10,10,10,18,8,24,0.00,0,,172
2012-9-16,85,65,45,50,43,39,96,60,24,30.05,29.94,29.88,10,10,8,29,9,36,0.17,1,Rain,36
2012-9-17,65,51,37,47,42,37,93,68,43,30.14,30.10,30.05,10,10,10,20,7,24,T,4,Rain,353
2012-9-18,73,54,34,44,37,32,96,60,14,30.12,29.98,29.77,10,10,10,16,6,22,0.00,2,,170
2012-9-19,73,59,45,43,33,20,83,41,8,30.00,29.85,29.69,10,10,10,37,14,46,0.00,0,,306
2012-9-20,70,57,43,34,30,27,53,37,20,30.06,29.98,29.86,10,10,7,14,6,,0.00,2,,295
2012-9-21,73,57,41,40,35,28,73,49,25,30.10,29.91,29.81,10,10,10,25,12,38,0.00,1,,348
2012-9-22,60,45,29,31,27,23,78,52,26,30.37,30.29,30.13,10,10,10,16,7,24,0.00,0,,354
2012-9-23,67,47,26,31,27,22,96,52,13,30.37,30.28,30.14,10,10,10,10,4,23,0.00,0,,141
2012-9-24,81,59,36,38,32,27,73,37,8,30.10,29.92,29.81,10,10,9,12,4,18,0.00,0,,207
2012-9-25,78,56,34,39,35,31,85,54,22,29.99,29.90,29.81,10,10,10,17,5,21,0.00,0,,40
2012-9-26,74,54,33,38,35,31,89,57,25,30.18,30.13,30.01,10,10,7,8,3,15,0.00,0,,89
2012-9-27,80,61,42,34,31,28,62,40,18,30.22,30.16,30.11,10,10,10,12,6,,0.00,1,,150
2012-9-28,81,62,42,34,31,27,67,41,15,30.19,30.14,30.09,10,10,10,10,4,15,0.00,0,,140
2012-9-29,83,62,41,36,33,29,57,37,17,30.13,30.06,29.97,10,10,10,12,6,28,0.00,0,,154
2012-9-30,85,66,47,54,40,36,70,42,11,29.99,29.94,29.86,10,10,10,14,5,20,0.01,1,Rain,173